Time;durP1;ratioP1;P1;durP2;ratioP2;P2;SDS_P1;SDS_P2;PMS_P1;PMS_P2;Temp;Humidity;BMP_temperature;BMP_pressure;BME280_temperature;BME280_humidity;BME280_pressure;Samples;Min_cycle;Max_cycle;Signal;HPM_P1;HPM_P2
2023/07/21 00:02:15;;;;;;;15.20;5.65;;;;;;;27.43;73.40;100050.44;4766611;30;20078;-85
2023/07/21 00:05:10;;;;;;;13.80;6.13;;;;;;;27.46;72.62;100046.75;4767793;30;21756;-83
2023/07/21 00:08:05;;;;;;;11.60;5.53;;;;;;;27.38;72.78;100032.19;4789850;29;20047;-84
2023/07/21 00:10:57;;;;;;;;;;;;;;;27.46;72.15;100043.94;4792346;29;20055;-84
2023/07/21 00:13:51;;;;;;;13.27;4.72;;;;;;;27.43;71.83;100039.25;4777217;30;19917;-83
2023/07/21 00:16:43;;;;;;;;;;;;;;;27.44;71.05;100038.00;4766289;30;20043;-83
2023/07/21 00:19:33;;;;;;;8.65;4.15;;;;;;;27.44;70.14;100030.41;4793882;29;19922;-82
2023/07/21 00:22:27;;;;;;;12.45;5.15;;;;;;;27.43;69.68;100033.69;4781375;30;20128;-83
2023/07/21 00:25:19;;;;;;;;;;;;;;;27.45;68.71;100034.00;4785905;29;20051;-82
2023/07/21 00:28:12;;;;;;;5.20;3.30;;;;;;;27.45;67.76;100045.94;4788638;29;19918;-81
2023/07/21 00:31:04;;;;;;;5.90;3.05;;;;;;;27.44;67.79;100040.81;4783280;30;20421;-82
2023/07/21 00:33:59;;;;;;;6.85;3.22;;;;;;;27.44;67.04;100027.63;4785763;29;20047;-81
2023/07/21 00:36:51;;;;;;;;;;;;;;;27.45;66.63;100020.03;4766654;30;20055;-82
2023/07/21 00:39:43;;;;;;;5.70;2.75;;;;;;;27.40;66.31;100009.41;4773199;30;20389;-83
2023/07/21 00:42:36;;;;;;;5.85;2.65;;;;;;;27.35;65.97;100002.38;4776802;29;20054;-80
2023/07/21 00:45:31;;;;;;;8.63;2.92;;;;;;;27.35;65.43;99998.81;4772218;29;20438;-83
2023/07/21 00:48:27;;;;;;;7.28;2.55;;;;;;;27.27;65.77;99998.25;4781339;30;20051;-81
2023/07/21 00:51:22;;;;;;;4.38;2.17;;;;;;;27.31;65.16;99993.34;4767650;29;20055;-81
2023/07/21 00:54:17;;;;;;;5.85;2.83;;;;;;;27.32;65.18;99994.13;4780994;29;20050;-80
2023/07/21 00:57:12;;;;;;;6.97;3.67;;;;;;;27.33;64.60;99990.09;4786822;29;20070;-81
2023/07/21 01:00:12;;;;;;;7.53;3.40;;;;;;;27.33;64.03;99992.91;4773617;29;20055;-81
2023/07/21 01:03:07;;;;;;;7.82;2.70;;;;;;;27.32;64.27;99994.91;4774779;30;20165;-80
2023/07/21 01:06:02;;;;;;;7.53;2.75;;;;;;;27.20;64.45;99981.72;4780399;30;20050;-81
2023/07/21 01:08:52;;;;;;;12.68;2.90;;;;;;;27.16;64.69;99975.47;4769985;30;20409;-82
2023/07/21 01:11:48;;;;;;;7.28;2.55;;;;;;;27.18;64.16;99973.78;4769664;30;20054;-81
2023/07/21 01:14:42;;;;;;;8.73;3.28;;;;;;;27.17;63.83;99963.84;4791782;29;20047;-81
2023/07/21 01:17:38;;;;;;;4.30;2.47;;;;;;;27.14;64.21;99977.91;4771192;30;20051;-82
2023/07/21 01:20:30;;;;;;;6.38;2.63;;;;;;;27.15;63.77;99993.44;4790906;30;20548;-82
2023/07/21 01:23:32;;;;;;;8.13;2.35;;;;;;;27.15;63.84;99977.47;4786889;29;20054;-80
2023/07/21 01:26:27;;;;;;;9.20;3.08;;;;;;;27.17;63.56;99951.91;4773232;29;20050;-79
2023/07/21 01:29:20;;;;;;;5.47;2.47;;;;;;;27.15;63.41;99969.09;4784086;29;20051;-80
2023/07/21 01:32:17;;;;;;;4.45;2.50;;;;;;;27.17;63.23;99975.00;4803951;29;20054;-80
2023/07/21 01:35:13;;;;;;;5.32;2.55;;;;;;;27.24;62.68;99966.41;4773951;30;20058;-80
2023/07/21 01:38:05;;;;;;;8.35;3.25;;;;;;;27.24;62.54;99969.22;4784762;29;20422;-80
2023/07/21 01:40:58;;;;;;;7.85;2.20;;;;;;;27.19;62.27;99947.44;4784433;29;20064;-80
2023/07/21 01:43:51;;;;;;;10.40;2.47;;;;;;;27.16;62.94;99956.72;4805469;29;20066;-80
2023/07/21 01:46:45;;;;;;;8.55;2.63;;;;;;;27.11;63.35;99965.66;4790969;29;20054;-83
2023/07/21 01:49:40;;;;;;;8.43;3.25;;;;;;;27.09;64.09;100009.97;4769184;30;20059;-82
2023/07/21 01:52:32;;;;;;;8.15;3.55;;;;;;;27.06;63.75;100055.53;4779538;30;20059;-82
2023/07/21 01:55:28;;;;;;;9.20;2.72;;;;;;;26.94;63.75;100053.47;4802740;29;20042;-84
2023/07/21 01:58:23;;;;;;;10.35;2.83;;;;;;;26.96;64.43;100045.47;4789091;29;20050;-86
2023/07/21 02:01:19;;;;;;;8.80;2.60;;;;;;;26.81;65.13;99999.63;4770878;30;20051;-84
2023/07/21 02:04:13;;;;;;;8.52;2.58;;;;;;;26.82;65.16;100012.31;4768634;30;20064;-83
2023/07/21 02:07:07;;;;;;;9.75;2.95;;;;;;;26.77;65.48;100010.88;4782172;30;20051;-83
2023/07/21 02:18:15;;;;;;;11.27;4.18;;;;;;;26.80;67.86;100043.47;4774573;30;20051;-82
2023/07/21 02:21:04;;;;;;;;;;;;;;;26.73;68.15;100028.94;4794383;29;20175;-83
2023/07/21 02:23:56;;;;;;;14.05;4.35;;;;;;;26.82;68.04;99979.63;4781996;29;19917;-85
2023/07/21 02:26:51;;;;;;;15.43;3.75;;;;;;;26.78;68.98;99961.44;4785228;29;20051;-82
2023/07/21 02:29:48;;;;;;;12.98;4.43;;;;;;;26.65;69.54;99992.09;4780654;29;20070;-84
2023/07/21 02:32:44;;;;;;;11.43;4.00;;;;;;;26.59;70.21;100012.59;4789993;29;20047;-82
2023/07/21 02:35:34;;;;;;;;;;;;;;;26.57;69.86;100029.78;4774046;30;20055;-81
2023/07/21 02:38:28;;;;;;;14.02;3.90;;;;;;;26.46;70.52;100048.03;4771767;30;20368;-81
2023/07/21 02:41:23;;;;;;;10.20;3.95;;;;;;;26.53;70.18;100059.78;4773210;30;20055;-81
2023/07/21 02:44:18;;;;;;;11.77;4.85;;;;;;;26.27;71.29;100044.94;4769186;30;20055;-80
2023/07/21 02:47:10;;;;;;;;;;;;;;;26.40;70.54;100033.84;4802727;29;20054;-81
2023/07/21 02:50:04;;;;;;;9.82;4.13;;;;;;;26.37;71.22;100009.63;4793317;29;20393;-81
2023/07/21 02:52:57;;;;;;;14.38;4.45;;;;;;;26.29;70.66;99981.16;4779236;30;20555;-81
2023/07/21 02:55:50;;;;;;;11.55;3.85;;;;;;;26.43;70.80;99985.56;4793625;29;20075;-85
2023/07/21 02:58:42;;;;;;;13.07;3.88;;;;;;;26.59;70.28;100004.25;4765059;30;20051;-83
2023/07/21 03:01:54;;;;;;;10.00;4.25;;;;;;;26.67;69.79;100016.75;4761105;30;20054;-82
2023/07/21 03:04:52;;;;;;;9.88;4.25;;;;;;;26.69;69.67;100031.84;4762113;30;20074;-83
2023/07/21 03:07:47;;;;;;;14.88;5.30;;;;;;;26.66;69.46;100037.53;4758426;30;20054;-82
2023/07/21 03:10:41;;;;;;;7.88;3.47;;;;;;;26.57;69.55;100040.16;4773960;29;20050;-82
2023/07/21 03:14:32;;;;;;;9.73;4.32;;;;;;;-144.51;100.00;69251.94;4780032;29;20051;-82
2023/07/21 03:18:25;;;;;;;11.10;4.90;;;;;;;-144.51;100.00;69251.94;4796410;29;20051;-81
2023/07/21 03:22:30;;;;;;;7.93;4.30;;;;;;;-144.51;100.00;69251.94;4790257;29;20040;-82
2023/07/21 03:26:23;;;;;;;11.77;5.43;;;;;;;-144.51;100.00;69251.94;4770051;30;20055;-83
2023/07/21 03:30:14;;;;;;;16.25;5.63;;;;;;;-144.51;100.00;69251.94;4791420;29;20035;-82
2023/07/21 03:34:13;;;;;;;10.13;5.78;;;;;;;-144.51;100.00;69251.94;4787149;29;20043;-84
2023/07/21 03:38:06;;;;;;;13.93;5.32;;;;;;;-144.51;100.00;69251.94;4788416;29;20047;-81
2023/07/21 03:42:06;;;;;;;8.98;4.13;;;;;;;-144.51;100.00;69251.94;4770724;30;20052;-82
2023/07/21 03:45:56;;;;;;;6.47;4.10;;;;;;;-144.51;100.00;69251.94;4755899;30;20044;-82
2023/07/21 03:49:49;;;;;;;10.70;4.90;;;;;;;-144.51;100.00;69251.94;4758626;30;20048;-82
2023/07/21 03:53:40;;;;;;;7.22;4.05;;;;;;;-144.51;100.00;69251.94;4778200;30;20040;-82
2023/07/21 03:57:32;;;;;;;11.40;4.13;;;;;;;-144.51;100.00;69251.94;4787013;29;20418;-83
2023/07/21 04:01:25;;;;;;;9.75;3.83;;;;;;;-144.51;100.00;69251.94;4770713;30;20501;-83
2023/07/21 04:05:18;;;;;;;8.73;4.82;;;;;;;-144.51;100.00;69251.94;4762904;30;20059;-84
2023/07/21 04:09:11;;;;;;;9.02;4.03;;;;;;;-144.51;100.00;69251.94;4762262;30;20043;-82
2023/07/21 04:13:00;;;;;;;10.98;4.85;;;;;;;-144.51;100.00;69251.94;4774763;29;20048;-80
2023/07/21 04:16:56;;;;;;;5.40;4.13;;;;;;;-144.51;100.00;69251.94;4791538;29;20039;-81
2023/07/21 04:20:44;;;;;;;9.10;4.40;;;;;;;-144.51;100.00;69251.94;4804668;29;20051;-80
2023/07/21 04:24:37;;;;;;;8.23;4.18;;;;;;;-144.51;100.00;69251.94;4789396;29;20052;-80
2023/07/21 04:28:30;;;;;;;9.65;4.70;;;;;;;-144.51;100.00;69251.94;4794774;29;20043;-84
2023/07/21 04:32:24;;;;;;;9.38;3.85;;;;;;;-144.51;100.00;69251.94;4779893;29;20040;-82
2023/07/21 04:36:14;;;;;;;11.70;3.97;;;;;;;-144.51;100.00;69251.94;4787593;29;20458;-85
2023/07/21 04:40:05;;;;;;;9.10;3.50;;;;;;;-144.51;100.00;69251.94;4757558;30;20048;-83
2023/07/21 04:43:56;;;;;;;6.40;3.00;;;;;;;-144.51;100.00;69251.94;4784104;29;20048;-82
2023/07/21 04:47:49;;;;;;;8.45;4.25;;;;;;;-144.51;100.00;69251.94;4776448;29;20043;-84
2023/07/21 04:51:44;;;;;;;8.60;3.30;;;;;;;-144.51;100.00;69251.94;4779360;30;20413;-84
2023/07/21 04:55:37;;;;;;;5.90;4.07;;;;;;;-144.51;100.00;69251.94;4791278;29;20044;-83
2023/07/21 04:59:30;;;;;;;9.77;2.97;;;;;;;-144.51;100.00;69251.94;4781852;29;20047;-80
2023/07/21 05:03:35;;;;;;;10.20;3.30;;;;;;;-144.51;100.00;69251.94;4778254;29;20043;-84
2023/07/21 05:07:28;;;;;;;10.55;3.60;;;;;;;-144.51;100.00;69251.94;4774451;29;20047;-84
2023/07/21 05:11:23;;;;;;;12.27;5.10;;;;;;;-144.51;100.00;69251.94;4762866;30;20036;-82
2023/07/21 05:15:14;;;;;;;10.93;3.33;;;;;;;-144.51;100.00;69251.94;4781160;30;20043;-84
2023/07/21 05:19:04;;;;;;;5.95;2.53;;;;;;;-144.51;100.00;69251.94;4766641;30;20040;-85
2023/07/21 05:23:17;;;;;;;5.53;3.10;;;;;;;-144.51;100.00;69251.94;4773289;30;20055;-88
2023/07/21 05:27:14;;;;;;;13.80;3.15;;;;;;;-144.51;100.00;69251.94;4780123;29;20060;-87
2023/07/21 05:31:12;;;;;;;4.68;3.28;;;;;;;-144.51;100.00;69251.94;4784977;30;20047;-82
2023/07/21 05:35:22;;;;;;;5.38;3.50;;;;;;;-144.51;100.00;69251.94;4773643;30;20418;-82
2023/07/21 05:39:14;;;;;;;10.05;3.35;;;;;;;-144.51;100.00;69251.94;4768245;30;20051;-85
2023/07/21 05:43:05;;;;;;;4.45;2.75;;;;;;;-144.51;100.00;69251.94;4783578;29;20047;-81
2023/07/21 05:46:56;;;;;;;7.20;2.78;;;;;;;-144.51;100.00;69251.94;4780989;30;20052;-86
2023/07/21 05:50:47;;;;;;;7.07;2.58;;;;;;;-144.51;100.00;69251.94;4776398;30;20048;-85
2023/07/21 05:54:40;;;;;;;7.45;2.97;;;;;;;-144.51;100.00;69251.94;4772153;30;20044;-84
2023/07/21 05:58:38;;;;;;;7.85;2.65;;;;;;;-144.51;100.00;69251.94;4780583;30;20044;-87
2023/07/21 06:02:32;;;;;;;6.28;2.53;;;;;;;-144.51;100.00;69251.94;4783633;30;20506;-86
2023/07/21 06:06:23;;;;;;;3.83;2.55;;;;;;;-144.51;100.00;69251.94;4775135;30;20032;-87
2023/07/21 06:10:27;;;;;;;7.13;2.50;;;;;;;-144.51;100.00;69251.94;4773899;30;20059;-88
2023/07/21 06:14:55;;;;;;;5.80;2.92;;;;;;;-144.51;100.00;69251.94;4774984;29;20044;-86
2023/07/21 06:19:04;;;;;;;7.07;2.63;;;;;;;-144.51;100.00;69251.94;4773130;30;20048;-86
2023/07/21 06:22:57;;;;;;;4.43;2.55;;;;;;;-144.51;100.00;69251.94;4803200;29;20509;-82
2023/07/21 06:26:51;;;;;;;7.35;2.60;;;;;;;-144.51;100.00;69251.94;4757327;30;20043;-83
2023/07/21 06:30:44;;;;;;;8.57;2.70;;;;;;;-144.51;100.00;69251.94;4782732;29;20039;-83
2023/07/21 06:34:37;;;;;;;8.57;2.83;;;;;;;-144.51;100.00;69251.94;4763712;30;20525;-83
2023/07/21 06:38:35;;;;;;;8.65;3.00;;;;;;;-144.51;100.00;69251.94;4791085;29;20047;-83
2023/07/21 06:42:38;;;;;;;8.55;3.55;;;;;;;-144.51;100.00;69251.94;4793415;29;20055;-84
2023/07/21 06:46:39;;;;;;;7.07;2.60;;;;;;;-144.51;100.00;69251.94;4790752;29;20043;-82
2023/07/21 06:50:37;;;;;;;8.27;2.53;;;;;;;-144.51;100.00;69251.94;4782475;29;20043;-83
2023/07/21 06:54:29;;;;;;;3.55;2.55;;;;;;;-144.51;100.00;69251.94;4780490;29;20044;-83
2023/07/21 06:58:22;;;;;;;5.68;2.47;;;;;;;-144.51;100.00;69251.94;4782691;30;20051;-81
2023/07/21 07:02:13;;;;;;;4.72;2.47;;;;;;;-144.51;100.00;69251.94;4795837;29;20044;-81
2023/07/21 07:06:06;;;;;;;4.97;2.22;;;;;;;-144.51;100.00;69251.94;4786999;29;20051;-82
2023/07/21 07:09:56;;;;;;;3.50;2.15;;;;;;;-144.51;100.00;69251.94;4790718;29;20044;-83
2023/07/21 07:13:47;;;;;;;5.60;2.75;;;;;;;-144.51;100.00;69251.94;4792383;29;20039;-83
2023/07/21 07:17:37;;;;;;;9.75;2.03;;;;;;;-144.51;100.00;69251.94;4784255;30;20410;-85
2023/07/21 07:21:28;;;;;;;4.60;2.72;;;;;;;-144.51;100.00;69251.94;4790914;29;20047;-83
2023/07/21 07:25:18;;;;;;;7.20;2.72;;;;;;;-144.51;100.00;69251.94;4788014;29;20047;-81
2023/07/21 07:29:09;;;;;;;5.40;2.90;;;;;;;-144.51;100.00;69251.94;4794704;29;20191;-82
2023/07/21 07:33:01;;;;;;;12.30;2.97;;;;;;;-144.51;100.00;69251.94;4803095;29;20510;-83
2023/07/21 07:36:54;;;;;;;6.38;2.58;;;;;;;-144.51;100.00;69251.94;4778117;29;20040;-82
2023/07/21 07:40:44;;;;;;;3.40;2.33;;;;;;;-144.51;100.00;69251.94;4769924;30;20051;-83
2023/07/21 07:44:38;;;;;;;7.32;2.40;;;;;;;-144.51;100.00;69251.94;4758707;30;20056;-83
2023/07/21 07:48:28;;;;;;;9.35;2.83;;;;;;;-144.51;100.00;69251.94;4796811;29;20039;-83
2023/07/21 07:52:21;;;;;;;4.72;2.40;;;;;;;-144.51;100.00;69251.94;4783352;30;20039;-84
2023/07/21 07:56:17;;;;;;;8.13;2.92;;;;;;;-144.51;100.00;69251.94;4791084;29;20043;-86
2023/07/21 08:00:11;;;;;;;4.18;2.30;;;;;;;-144.51;100.00;69251.94;4797005;29;20039;-84
2023/07/21 08:04:06;;;;;;;4.35;2.08;;;;;;;-144.51;100.00;69251.94;4802507;29;20048;-84
2023/07/21 08:07:59;;;;;;;151.93;34.50;;;;;;;-144.51;100.00;69251.94;4803907;29;20047;-84
2023/07/21 08:11:52;;;;;;;204.38;45.10;;;;;;;-144.51;100.00;69251.94;4795595;29;20513;-85
2023/07/21 08:15:48;;;;;;;114.78;25.08;;;;;;;-144.51;100.00;69251.94;4786551;29;20039;-86
2023/07/21 08:19:41;;;;;;;16.45;6.88;;;;;;;-144.51;100.00;69251.94;4787411;29;20036;-85
2023/07/21 08:23:29;;;;;;;24.38;6.43;;;;;;;-144.51;100.00;69251.94;4786933;29;20510;-84
2023/07/21 08:27:25;;;;;;;11.60;3.90;;;;;;;-144.51;100.00;69251.94;4797056;29;20047;-85
2023/07/21 08:31:18;;;;;;;14.15;4.20;;;;;;;-144.51;100.00;69251.94;4779435;29;20044;-85
2023/07/21 08:35:10;;;;;;;9.07;3.03;;;;;;;-144.51;100.00;69251.94;4782850;29;20040;-86
2023/07/21 08:39:03;;;;;;;6.13;2.40;;;;;;;-144.51;100.00;69251.94;4770123;30;20052;-84
2023/07/21 08:42:54;;;;;;;8.30;2.42;;;;;;;-144.51;100.00;69251.94;4787170;29;20044;-84
2023/07/21 08:46:46;;;;;;;4.43;2.05;;;;;;;-144.51;100.00;69251.94;4756432;30;20048;-85
2023/07/21 08:50:40;;;;;;;5.97;3.15;;;;;;;-144.51;100.00;69251.94;4771353;30;20410;-82
2023/07/21 08:54:33;;;;;;;6.05;3.17;;;;;;;-144.51;100.00;69251.94;4769467;30;20051;-82
2023/07/21 08:58:23;;;;;;;4.28;2.35;;;;;;;-144.51;100.00;69251.94;4780931;30;20044;-81
2023/07/21 09:02:16;;;;;;;8.30;2.60;;;;;;;-144.51;100.00;69251.94;4780628;29;20051;-82
2023/07/21 09:06:04;;;;;;;6.22;2.50;;;;;;;-144.51;100.00;69251.94;4784290;29;20047;-86
2023/07/21 09:09:55;;;;;;;3.05;2.20;;;;;;;-144.51;100.00;69251.94;4785702;29;20039;-83
2023/07/21 09:13:56;;;;;;;14.23;3.80;;;;;;;-144.51;100.00;69251.94;4772376;29;20499;-82
2023/07/21 09:17:50;;;;;;;9.20;2.95;;;;;;;-144.51;100.00;69251.94;4770635;29;20048;-82
2023/07/21 09:21:43;;;;;;;6.40;2.35;;;;;;;-144.51;100.00;69251.94;4771773;29;20039;-81
2023/07/21 09:25:36;;;;;;;5.60;2.70;;;;;;;-144.51;100.00;69251.94;4773285;29;20047;-83
2023/07/21 09:29:38;;;;;;;9.55;2.85;;;;;;;-144.51;100.00;69251.94;4781758;29;20056;-83
2023/07/21 09:33:28;;;;;;;9.25;2.88;;;;;;;-144.51;100.00;69251.94;4757022;30;20044;-82
2023/07/21 09:37:21;;;;;;;7.20;2.90;;;;;;;-144.51;100.00;69251.94;4773932;29;20043;-83
2023/07/21 09:41:15;;;;;;;4.40;2.30;;;;;;;-144.51;100.00;69251.94;4776127;30;20048;-82
2023/07/21 09:45:09;;;;;;;8.50;2.75;;;;;;;-144.51;100.00;69251.94;4781102;29;20048;-83
2023/07/21 09:49:04;;;;;;;5.45;2.53;;;;;;;-144.51;100.00;69251.94;4791126;29;20039;-83
2023/07/21 09:52:58;;;;;;;8.23;3.05;;;;;;;-144.51;100.00;69251.94;4773258;30;20451;-83
2023/07/21 09:56:51;;;;;;;4.60;2.30;;;;;;;-144.51;100.00;69251.94;4787973;29;20048;-83
2023/07/21 10:00:46;;;;;;;4.45;2.20;;;;;;;-144.51;100.00;69251.94;4774024;29;20043;-84
2023/07/21 10:04:39;;;;;;;3.88;2.60;;;;;;;-144.51;100.00;69251.94;4784669;29;20502;-83
2023/07/21 10:08:31;;;;;;;10.35;2.90;;;;;;;-144.51;100.00;69251.94;4785331;29;20035;-85
2023/07/21 10:12:24;;;;;;;12.40;2.70;;;;;;;-144.51;100.00;69251.94;4783490;29;20047;-84
2023/07/21 10:16:22;;;;;;;9.70;3.20;;;;;;;-144.51;100.00;69251.94;4773621;30;20052;-84
2023/07/21 10:20:17;;;;;;;8.05;3.53;;;;;;;-144.51;100.00;69251.94;4792214;29;20055;-85
2023/07/21 10:24:07;;;;;;;9.75;3.20;;;;;;;-144.51;100.00;69251.94;4787183;29;20043;-85
2023/07/21 10:28:06;;;;;;;11.13;3.13;;;;;;;-144.51;100.00;69251.94;4778342;29;20052;-85
2023/07/21 10:32:14;;;;;;;9.75;2.72;;;;;;;-144.51;100.00;69251.94;4778980;30;20051;-85
2023/07/21 10:36:40;;;;;;;10.30;2.85;;;;;;;-144.51;100.00;69251.94;4784358;29;20421;-84
2023/07/21 10:40:33;;;;;;;9.25;2.85;;;;;;;-144.51;100.00;69251.94;4785220;29;20039;-85
2023/07/21 10:44:24;;;;;;;11.77;3.47;;;;;;;-144.51;100.00;69251.94;4778386;29;20043;-83
2023/07/21 11:37:41;;;;;;;5.82;2.17;;;;;;;-144.51;100.00;69251.94;5646498;24;20404;-81
2023/07/21 11:41:46;;;;;;;10.02;2.28;;;;;;;-144.51;100.00;69251.94;4790506;29;20055;-81
2023/07/21 11:45:43;;;;;;;4.05;1.55;;;;;;;-144.51;100.00;69251.94;4800238;29;20039;-83
2023/07/21 11:49:39;;;;;;;4.03;1.60;;;;;;;-144.51;100.00;69251.94;4783540;30;20048;-82
2023/07/21 11:53:43;;;;;;;6.43;2.25;;;;;;;-144.51;100.00;69251.94;4787012;29;20039;-82
2023/07/21 11:57:36;;;;;;;8.23;1.95;;;;;;;-144.51;100.00;69251.94;4771607;30;20039;-81
2023/07/21 12:01:26;;;;;;;5.20;1.77;;;;;;;-144.51;100.00;69251.94;4777629;30;20048;-82
2023/07/21 12:05:15;;;;;;;2.65;1.40;;;;;;;-144.51;100.00;69251.94;4778383;30;20043;-82
2023/07/21 12:09:06;;;;;;;5.07;2.13;;;;;;;-144.51;100.00;69251.94;4783035;29;20060;-82
2023/07/21 12:12:59;;;;;;;6.32;1.58;;;;;;;-144.51;100.00;69251.94;4775774;30;20048;-83
2023/07/21 12:16:52;;;;;;;5.18;1.92;;;;;;;-144.51;100.00;69251.94;4787123;30;20055;-83
2023/07/21 12:20:46;;;;;;;5.97;1.80;;;;;;;-144.51;100.00;69251.94;4802590;29;20039;-83
2023/07/21 12:24:39;;;;;;;2.47;1.30;;;;;;;-144.51;100.00;69251.94;4783290;30;20564;-82
2023/07/21 12:28:32;;;;;;;4.15;2.10;;;;;;;-144.51;100.00;69251.94;4785589;30;20051;-82
2023/07/21 12:32:24;;;;;;;4.07;1.20;;;;;;;-144.51;100.00;69251.94;4788468;30;20044;-82
2023/07/21 12:36:17;;;;;;;3.13;1.25;;;;;;;-144.51;100.00;69251.94;4791681;30;20052;-83
2023/07/21 12:39:12;;;;;;;2.50;1.70;;;;;;;26.99;68.29;100038.97;4795014;29;20036;-82
2023/07/21 12:42:07;;;;;;;4.78;1.52;;;;;;;26.99;70.29;100038.97;4774783;30;20063;-82
2023/07/21 12:45:01;;;;;;;5.57;1.70;;;;;;;26.97;66.36;100035.84;4777226;29;20043;-81
2023/07/21 12:47:53;;;;;;;;;;;;;;;27.05;66.97;100031.63;4780795;29;20070;-82
2023/07/21 12:50:48;;;;;;;5.35;1.33;;;;;;;27.04;65.18;100035.63;4764789;30;19917;-82
2023/07/21 12:53:37;;;;;;;2.00;1.30;;;;;;;27.09;66.08;100040.66;4780065;30;20051;-82
2023/07/21 12:56:25;;;;;;;2.47;1.30;;;;;;;27.13;65.51;100034.97;4775493;30;20056;-82
2023/07/21 12:59:17;;;;;;;5.05;1.25;;;;;;;27.18;65.98;100032.41;4775852;30;20062;-82
2023/07/21 13:02:11;;;;;;;7.03;1.38;;;;;;;27.20;65.51;100038.34;4774745;30;20050;-82
2023/07/21 13:05:01;;;;;;;2.25;1.10;;;;;;;27.19;64.53;100036.78;4772346;30;20545;-82
2023/07/21 13:07:53;;;;;;;3.33;1.83;;;;;;;27.24;63.77;100041.00;4775132;30;20068;-82
2023/07/21 13:10:48;;;;;;;5.65;1.95;;;;;;;27.24;63.88;100033.44;4777484;30;20047;-82
2023/07/21 13:13:39;;;;;;;;;;;;;;;27.32;62.67;100033.22;4765268;30;20058;-81
2023/07/21 13:16:36;;;;;;;2.97;1.45;;;;;;;27.35;62.37;100035.09;4762491;30;19918;-82
2023/07/21 13:19:31;;;;;;;3.17;1.35;;;;;;;27.36;61.71;100042.25;4777214;30;20043;-82
2023/07/21 13:22:22;;;;;;;;;;;;;;;27.41;60.53;100036.13;4782705;30;20413;-82
2023/07/21 13:25:17;;;;;;;1.63;1.02;;;;;;;27.44;61.07;100046.38;4778218;29;19922;-82
2023/07/21 13:28:09;;;;;;;3.30;1.67;;;;;;;27.48;61.60;100044.28;4795258;29;20051;-82
2023/07/21 13:31:00;;;;;;;2.53;1.20;;;;;;;27.53;61.24;100035.38;4775955;29;20055;-82
2023/07/21 13:33:55;;;;;;;2.33;1.48;;;;;;;27.55;60.91;100032.91;4770265;30;20515;-82
2023/07/21 13:36:45;;;;;;;4.45;1.10;;;;;;;27.60;60.24;100032.34;4770844;30;20050;-82
2023/07/21 13:40:36;;;;;;;2.53;1.00;;;;;;;-144.51;100.00;69251.94;4779540;30;20069;-82
2023/07/21 13:43:28;;;;;;;3.03;1.30;;;;;;;27.83;58.77;100032.00;4779454;30;20040;-82
2023/07/21 13:46:23;;;;;;;1.77;1.15;;;;;;;27.78;58.45;100026.97;4773576;29;20059;-83
2023/07/21 13:49:19;;;;;;;2.00;1.15;;;;;;;27.78;59.58;100018.59;4771029;30;20082;-82
2023/07/21 13:52:13;;;;;;;2.50;1.25;;;;;;;-144.51;100.00;69251.94;4786258;30;20539;-81
2023/07/21 13:55:08;;;;;;;1.48;0.80;;;;;;;27.84;57.40;100025.16;4780947;30;20043;-82
2023/07/21 13:58:59;;;;;;;;;;;;;;;-144.51;100.00;69251.94;4776991;30;20074;-82
2023/07/21 14:02:52;;;;;;;3.65;1.15;;;;;;;-144.51;100.00;69251.94;4782415;30;19917;-82
2023/07/21 14:06:45;;;;;;;2.78;0.90;;;;;;;-144.51;100.00;69251.94;4777962;30;20409;-82
2023/07/21 14:10:38;;;;;;;2.40;1.40;;;;;;;-144.51;100.00;69251.94;4784002;30;20588;-82
2023/07/21 14:14:31;;;;;;;1.10;0.75;;;;;;;-144.51;100.00;69251.94;4777921;30;20502;-82
2023/07/21 14:18:27;;;;;;;1.13;0.82;;;;;;;-144.51;100.00;69251.94;4777841;30;20047;-82
2023/07/21 14:22:21;;;;;;;2.90;1.35;;;;;;;-144.51;100.00;69251.94;4778646;30;20044;-83
2023/07/21 14:26:14;;;;;;;2.17;0.88;;;;;;;-144.51;100.00;69251.94;4768527;30;20036;-83
2023/07/21 14:30:07;;;;;;;2.25;1.10;;;;;;;-144.51;100.00;69251.94;4787519;30;20060;-83
2023/07/21 14:34:00;;;;;;;4.13;1.30;;;;;;;-144.51;100.00;69251.94;4782627;30;20059;-83
2023/07/21 14:37:51;;;;;;;2.30;1.30;;;;;;;-144.51;100.00;69251.94;4771093;29;20501;-82
2023/07/21 14:41:41;;;;;;;1.60;1.00;;;;;;;-144.51;100.00;69251.94;4773471;30;20402;-82
2023/07/21 14:45:31;;;;;;;1.10;0.75;;;;;;;-144.51;100.00;69251.94;4768422;30;20040;-84
2023/07/21 14:49:19;;;;;;;1.95;0.82;;;;;;;-144.51;100.00;69251.94;4767971;30;20052;-82
2023/07/21 14:53:10;;;;;;;2.25;1.23;;;;;;;-144.51;100.00;69251.94;4795452;29;20579;-83
2023/07/21 14:57:00;;;;;;;3.03;1.20;;;;;;;-144.51;100.00;69251.94;4773436;29;20063;-82
2023/07/21 15:00:53;;;;;;;5.63;1.00;;;;;;;-144.51;100.00;69251.94;4778298;30;20047;-82
2023/07/21 15:04:44;;;;;;;1.85;1.27;;;;;;;-144.51;100.00;69251.94;4782851;30;20044;-83
2023/07/21 15:08:34;;;;;;;4.63;1.88;;;;;;;-144.51;100.00;69251.94;4779616;30;20052;-83
2023/07/21 15:12:27;;;;;;;1.95;1.02;;;;;;;-144.51;100.00;69251.94;4778015;30;20422;-82
2023/07/21 15:16:20;;;;;;;3.00;1.40;;;;;;;-144.51;100.00;69251.94;4774357;30;20043;-82
2023/07/21 15:20:18;;;;;;;2.30;1.17;;;;;;;-144.51;100.00;69251.94;4764351;30;20047;-82
2023/07/21 15:24:11;;;;;;;4.63;1.70;;;;;;;-144.51;100.00;69251.94;4769171;30;20047;-82
2023/07/21 15:28:04;;;;;;;2.70;1.30;;;;;;;-144.51;100.00;69251.94;4775044;29;20047;-82
2023/07/21 15:32:05;;;;;;;4.32;0.90;;;;;;;-144.51;100.00;69251.94;4778586;29;20426;-82
2023/07/21 15:35:58;;;;;;;3.28;1.27;;;;;;;-144.51;100.00;69251.94;4775463;29;20043;-80
2023/07/21 15:39:49;;;;;;;3.97;1.10;;;;;;;-144.51;100.00;69251.94;4774567;30;20433;-83
2023/07/21 15:43:41;;;;;;;6.80;1.25;;;;;;;-144.51;100.00;69251.94;4776722;30;20048;-83
2023/07/21 15:47:34;;;;;;;1.92;1.30;;;;;;;-144.51;100.00;69251.94;4773682;30;20040;-83
2023/07/21 15:51:27;;;;;;;8.32;1.80;;;;;;;-144.51;100.00;69251.94;4766768;30;20043;-82
2023/07/21 15:55:15;;;;;;;6.28;1.90;;;;;;;-144.51;100.00;69251.94;4779722;30;20493;-81
2023/07/21 15:59:08;;;;;;;2.65;1.48;;;;;;;-144.51;100.00;69251.94;4773921;30;20052;-83
2023/07/21 16:02:59;;;;;;;3.20;2.08;;;;;;;-144.51;100.00;69251.94;4777496;30;20039;-83
2023/07/21 16:06:52;;;;;;;6.05;1.98;;;;;;;-144.51;100.00;69251.94;4774085;30;20044;-82
2023/07/21 16:10:46;;;;;;;3.58;1.80;;;;;;;-144.51;100.00;69251.94;4773667;30;20055;-82
2023/07/21 16:14:39;;;;;;;6.43;1.88;;;;;;;-144.51;100.00;69251.94;4776402;30;20048;-81
2023/07/21 16:18:32;;;;;;;4.40;1.85;;;;;;;-144.51;100.00;69251.94;4788216;29;20023;-83
2023/07/21 16:22:22;;;;;;;4.25;1.73;;;;;;;-144.51;100.00;69251.94;4797150;29;20537;-83
2023/07/21 16:26:15;;;;;;;3.17;1.67;;;;;;;-144.51;100.00;69251.94;4788355;29;20050;-83
2023/07/21 16:30:09;;;;;;;5.53;2.05;;;;;;;-144.51;100.00;69251.94;4794311;29;20043;-83
2023/07/21 16:34:00;;;;;;;6.38;2.15;;;;;;;-144.51;100.00;69251.94;4774306;30;20048;-81
2023/07/21 16:37:48;;;;;;;6.13;2.33;;;;;;;-144.51;100.00;69251.94;4779050;30;20043;-82
2023/07/21 16:41:41;;;;;;;5.55;2.00;;;;;;;-144.51;100.00;69251.94;4783177;29;20364;-82
2023/07/21 16:45:33;;;;;;;3.85;2.05;;;;;;;-144.51;100.00;69251.94;4791344;29;20451;-82
2023/07/21 16:49:24;;;;;;;4.55;1.85;;;;;;;-144.51;100.00;69251.94;4791065;29;20517;-82
2023/07/21 16:53:17;;;;;;;3.53;2.40;;;;;;;-144.51;100.00;69251.94;4776350;30;20047;-82
2023/07/21 16:57:10;;;;;;;7.63;3.03;;;;;;;-144.51;100.00;69251.94;4775299;30;20040;-82
2023/07/21 17:00:10;;;;;;;2.92;1.92;;;;;;;28.37;56.09;100014.97;4773114;30;20506;-82
2023/07/21 17:04:03;;;;;;;8.68;2.25;;;;;;;-144.51;100.00;69251.94;4792296;29;20054;-82
2023/07/21 17:07:56;;;;;;;3.45;1.98;;;;;;;-144.51;100.00;69251.94;4791228;29;20039;-82
2023/07/21 17:11:47;;;;;;;4.97;2.15;;;;;;;-144.51;100.00;69251.94;4793254;29;20047;-82
2023/07/21 17:15:40;;;;;;;4.90;2.17;;;;;;;-144.51;100.00;69251.94;4791240;29;20043;-82
2023/07/21 17:19:33;;;;;;;4.15;2.15;;;;;;;-144.51;100.00;69251.94;4781398;30;20042;-82
2023/07/21 17:23:26;;;;;;;3.45;2.20;;;;;;;-144.51;100.00;69251.94;4783080;30;20521;-82